Terminal Aerodrome Forecast
Issued by NWS

Home | Current Version | Previous Version | Text Only | Print | Product List | Glossary On
Versions: 1 2 3 4 5 6 7 8 9 10 11 12 13 14 15 16 17 18 19 20 21 22 23 24 25 26 27 28
000
FTUS41 KGYX 181700
TAFHIE
TAF
KHIE 181723Z 1818/1918 VRB03KT P6SM SCT035 BKN100
     FM190000 VRB03KT P6SM -SHRASN OVC035
     FM190600 VRB03KT 4SM -SHSN BR OVC020
     FM191300 30012KT P6SM BKN035=

USA.gov is the U.S. government's official web portal to all federal, state and local government web resources and services.